createdAt,value
2022-10-17T00:00:42.833Z,35.93
2022-10-17T00:03:28.577Z,38.22
2022-10-17T00:06:16.096Z,37.13
2022-10-17T00:09:02.774Z,38.30
2022-10-17T00:11:48.540Z,36.25
2022-10-17T00:14:34.622Z,33.08
2022-10-17T00:17:20.736Z,34.65
2022-10-17T00:20:07.826Z,37.22
2022-10-17T00:22:54.059Z,39.42
2022-10-17T00:25:40.587Z,37.53
2022-10-17T00:28:26.698Z,43.60
2022-10-17T00:31:12.655Z,40.53
2022-10-17T00:33:58.650Z,36.67
2022-10-17T00:36:44.613Z,34.15
2022-10-17T00:39:30.613Z,36.45
2022-10-17T00:42:17.865Z,37.95
2022-10-17T00:45:14.822Z,40.85
2022-10-17T00:48:08.472Z,41.10
2022-10-17T00:50:57.506Z,38.77
2022-10-17T00:53:45.274Z,41.60
2022-10-17T00:56:31.738Z,38.78
2022-10-17T00:59:20.563Z,42.97
2022-10-17T01:02:13.966Z,40.33
2022-10-17T01:05:00.378Z,43.50
2022-10-17T01:07:47.620Z,36.58
2022-10-17T01:11:08.641Z,42.40
2022-10-17T01:14:00.393Z,41.03
2022-10-17T01:17:03.512Z,41.50
2022-10-17T01:19:51.670Z,42.63
2022-10-17T01:22:47.452Z,42.43
2022-10-17T01:25:48.601Z,40.03
2022-10-17T01:29:11.858Z,41.63
2022-10-17T01:32:21.237Z,39.25
2022-10-17T01:35:33.421Z,39.55
2022-10-17T01:38:24.941Z,42.55
2022-10-17T01:41:27.881Z,42.17
2022-10-17T01:44:21.309Z,44.38
2022-10-17T01:47:14.505Z,41.35
2022-10-17T01:50:18.827Z,40.13
2022-10-17T01:53:12.781Z,37.92
2022-10-17T01:56:02.548Z,39.65
2022-10-17T01:58:57.277Z,40.80
2022-10-17T02:01:44.971Z,39.80
2022-10-17T02:04:30.841Z,42.42
2022-10-17T02:07:17.705Z,43.55
2022-10-17T02:10:09.055Z,39.90
2022-10-17T02:13:07.515Z,41.83
2022-10-17T02:16:08.340Z,40.13
2022-10-17T02:19:31.281Z,40.58
2022-10-17T02:22:30.704Z,39.78
2022-10-17T02:25:37.401Z,40.88
2022-10-17T02:28:43.590Z,39.73
2022-10-17T02:31:40.182Z,42.03
2022-10-17T02:34:32.615Z,43.67
2022-10-17T02:37:25.290Z,40.60
2022-10-17T02:40:14.424Z,41.28
2022-10-17T02:43:03.484Z,40.92
2022-10-17T02:45:50.494Z,42.03
2022-10-17T02:48:43.273Z,45.28
2022-10-17T02:51:52.568Z,43.25
2022-10-17T02:54:43.667Z,45.42
2022-10-17T02:57:33.413Z,41.25
2022-10-17T03:00:21.720Z,44.05
2022-10-17T03:03:24.296Z,40.42
2022-10-17T03:06:10.764Z,40.97
2022-10-17T03:08:56.440Z,40.47
2022-10-17T03:11:42.336Z,39.05
2022-10-17T03:14:28.657Z,40.45
2022-10-17T03:17:14.745Z,41.00
2022-10-17T03:20:00.612Z,40.17
2022-10-17T03:22:46.084Z,41.58
2022-10-17T03:25:31.647Z,42.75
2022-10-17T03:28:17.141Z,43.07
2022-10-17T03:31:11.125Z,41.87
2022-10-17T03:33:58.162Z,44.97
2022-10-17T03:36:44.179Z,41.92
2022-10-17T03:39:30.671Z,43.10
2022-10-17T03:42:16.728Z,43.33
2022-10-17T03:45:03.984Z,43.15
2022-10-17T03:47:50.065Z,42.10
2022-10-17T03:50:35.790Z,42.90
2022-10-17T03:53:22.200Z,41.23
2022-10-17T03:56:13.327Z,40.47
2022-10-17T03:58:59.402Z,41.97
2022-10-17T04:01:46.211Z,43.13
2022-10-17T04:04:32.106Z,46.47
2022-10-17T04:07:18.677Z,43.20
2022-10-17T04:10:08.411Z,49.67
2022-10-17T04:12:54.262Z,44.67
2022-10-17T04:15:39.915Z,47.45
2022-10-17T04:18:26.336Z,48.10
2022-10-17T04:21:12.786Z,45.13
2022-10-17T04:24:00.672Z,43.85
2022-10-17T04:27:00.656Z,45.53
2022-10-17T04:29:49.612Z,45.65
2022-10-17T04:32:40.600Z,48.35
2022-10-17T04:35:38.657Z,42.38
2022-10-17T04:38:29.536Z,47.65
2022-10-17T04:41:18.088Z,43.08
2022-10-17T04:44:04.565Z,43.17
2022-10-17T04:46:54.933Z,40.53
2022-10-17T04:52:37.478Z,43.55
2022-10-17T04:55:23.275Z,42.37
2022-10-17T04:58:09.174Z,46.45
2022-10-17T05:00:56.713Z,43.83
2022-10-17T05:03:47.063Z,43.45
2022-10-17T05:06:33.569Z,45.35
2022-10-17T05:09:42.732Z,43.15
2022-10-17T05:12:29.597Z,50.40
2022-10-17T05:15:15.570Z,45.90
2022-10-17T05:18:02.907Z,46.58
2022-10-17T05:20:49.305Z,48.38
2022-10-17T05:23:35.383Z,48.10
2022-10-17T05:26:22.298Z,42.17
2022-10-17T05:29:07.699Z,43.10
2022-10-17T05:31:58.347Z,45.95
2022-10-17T05:34:44.910Z,45.30
2022-10-17T05:37:31.489Z,47.27
2022-10-17T05:40:17.805Z,46.58
2022-10-17T05:43:04.378Z,44.87
2022-10-17T05:45:49.715Z,44.22
2022-10-17T05:48:39.276Z,45.35
2022-10-17T05:51:25.620Z,44.33
2022-10-17T05:54:14.338Z,41.13
2022-10-17T05:57:00.818Z,42.57
2022-10-17T05:59:50.293Z,42.35
2022-10-17T06:02:39.280Z,42.17
2022-10-17T06:05:26.842Z,41.25
2022-10-17T06:08:13.616Z,40.95
2022-10-17T06:10:59.720Z,42.78
2022-10-17T06:13:45.364Z,40.77
2022-10-17T06:16:37.440Z,41.42
2022-10-17T06:19:24.738Z,42.15
2022-10-17T06:22:10.778Z,43.67
2022-10-17T06:24:56.661Z,42.10
2022-10-17T06:27:43.192Z,44.25
2022-10-17T06:30:31.206Z,41.17
2022-10-17T06:33:17.941Z,47.07
2022-10-17T06:36:05.719Z,44.40
2022-10-17T06:38:51.394Z,41.00
2022-10-17T06:41:47.935Z,43.10
2022-10-17T06:44:37.310Z,47.85
2022-10-17T06:47:43.250Z,44.10
2022-10-17T06:51:06.235Z,50.78
2022-10-17T06:54:02.358Z,45.70
2022-10-17T06:57:14.122Z,47.00
2022-10-17T07:00:11.205Z,50.17
2022-10-17T07:03:05.282Z,46.65
2022-10-17T07:05:55.830Z,44.15
2022-10-17T07:08:46.327Z,44.73
2022-10-17T07:11:36.061Z,47.95
2022-10-17T07:14:22.187Z,47.70
2022-10-17T07:17:07.827Z,49.60
2022-10-17T07:19:53.266Z,46.85
2022-10-17T07:22:40.143Z,48.17
2022-10-17T07:25:26.829Z,50.10
2022-10-17T07:28:19.474Z,46.90
2022-10-17T07:31:08.278Z,52.03
2022-10-17T07:33:54.783Z,51.17
2022-10-17T07:36:40.869Z,54.85
2022-10-17T07:39:27.612Z,91.53
2022-10-17T07:42:14.584Z,51.88
2022-10-17T07:45:01.078Z,52.42
2022-10-17T07:47:49.929Z,54.50
2022-10-17T07:50:35.805Z,56.03
2022-10-17T07:53:21.432Z,51.60
2022-10-17T07:56:08.919Z,43.07
2022-10-17T08:01:46.337Z,43.97
2022-10-17T08:04:33.345Z,48.42
2022-10-17T08:07:24.157Z,48.42
2022-10-17T08:10:15.094Z,45.63
2022-10-17T08:13:02.217Z,45.53
2022-10-17T08:15:48.729Z,44.30
2022-10-17T08:18:36.313Z,43.85
2022-10-17T08:21:22.780Z,34.78
2022-10-17T08:24:08.729Z,37.47
2022-10-17T08:26:54.634Z,38.45
2022-10-17T08:29:41.315Z,37.40
2022-10-17T08:32:29.792Z,39.50
2022-10-17T08:35:16.305Z,40.17
2022-10-17T08:38:02.407Z,41.77
2022-10-17T08:40:49.615Z,40.13
2022-10-17T08:43:42.110Z,39.08
2022-10-17T08:46:36.074Z,37.78
2022-10-17T08:49:47.123Z,43.13
2022-10-17T08:52:48.879Z,39.97
2022-10-17T08:55:49.370Z,35.30
2022-10-17T08:58:37.890Z,37.33
2022-10-17T09:01:43.938Z,35.10
2022-10-17T09:04:50.031Z,37.80
2022-10-17T09:08:12.155Z,37.95
2022-10-17T09:11:05.132Z,38.45
2022-10-17T09:13:58.431Z,39.67
2022-10-17T09:17:06.406Z,36.83
2022-10-17T09:20:16.034Z,37.73
2022-10-17T09:23:17.532Z,34.92
2022-10-17T09:26:03.448Z,36.13
2022-10-17T09:28:56.252Z,35.67
2022-10-17T09:32:04.645Z,34.47
2022-10-17T09:34:55.529Z,36.28
2022-10-17T09:37:45.100Z,37.47
2022-10-17T09:40:38.692Z,36.72
2022-10-17T09:43:25.194Z,39.88
2022-10-17T09:46:26.786Z,40.60
2022-10-17T09:49:17.254Z,35.70
2022-10-17T09:52:06.402Z,34.17
2022-10-17T09:55:06.991Z,34.60
2022-10-17T09:57:52.743Z,37.40
2022-10-17T10:00:47.621Z,35.78
2022-10-17T10:03:33.982Z,35.75
2022-10-17T10:06:21.794Z,33.67
2022-10-17T10:09:25.947Z,33.88
2022-10-17T10:12:23.236Z,33.70
2022-10-17T10:15:37.595Z,33.38
2022-10-17T10:18:36.489Z,28.80
2022-10-17T10:21:25.476Z,36.22
2022-10-17T10:24:14.892Z,33.17
2022-10-17T10:27:04.581Z,31.80
2022-10-17T10:29:52.983Z,32.28
2022-10-17T10:32:38.956Z,29.45
2022-10-17T10:35:34.793Z,30.50
2022-10-17T10:38:21.453Z,29.38
2022-10-17T10:41:11.594Z,26.55
2022-10-17T10:43:57.877Z,28.38
2022-10-17T10:46:44.338Z,28.37
2022-10-17T10:49:32.890Z,25.08
2022-10-17T10:52:30.761Z,27.00
2022-10-17T10:55:28.776Z,30.27
2022-10-17T10:58:41.987Z,22.25
2022-10-17T11:01:51.657Z,27.75
2022-10-17T11:04:42.928Z,25.52
2022-10-17T11:08:00.150Z,27.00
2022-10-17T11:11:01.700Z,21.00
2022-10-17T11:14:00.318Z,21.92
2022-10-17T11:17:02.510Z,18.25
2022-10-17T11:19:52.723Z,19.50
2022-10-17T11:22:49.764Z,25.23
2022-10-17T11:25:38.218Z,25.77
2022-10-17T11:28:26.198Z,24.88
2022-10-17T11:31:17.432Z,25.10
2022-10-17T11:34:19.578Z,23.60
2022-10-17T11:37:40.881Z,25.90
2022-10-17T11:40:39.205Z,23.33
2022-10-17T11:43:47.991Z,27.70
2022-10-17T11:46:36.648Z,22.77
2022-10-17T11:49:29.373Z,22.08
2022-10-17T11:52:55.523Z,24.20
2022-10-17T11:55:41.399Z,26.15
2022-10-17T11:58:33.262Z,25.05
2022-10-17T12:01:44.691Z,24.90
2022-10-17T12:04:41.982Z,22.70
2022-10-17T12:08:01.314Z,25.75
2022-10-17T12:11:14.940Z,23.67
2022-10-17T12:14:04.946Z,23.80
2022-10-17T12:16:52.420Z,21.58
2022-10-17T12:19:38.711Z,24.95
2022-10-17T12:22:26.330Z,22.40
2022-10-17T12:25:20.268Z,23.55
2022-10-17T12:28:31.274Z,20.55
2022-10-17T12:31:17.416Z,23.13
2022-10-17T12:34:05.068Z,23.67
2022-10-17T12:36:51.171Z,24.75
2022-10-17T12:39:36.699Z,23.13
2022-10-17T12:42:33.888Z,23.15
2022-10-17T12:45:53.097Z,21.90
2022-10-17T12:48:41.650Z,24.15
2022-10-17T12:51:37.900Z,22.42
2022-10-17T12:54:24.089Z,21.08
2022-10-17T12:57:44.850Z,21.23
2022-10-17T13:00:36.622Z,22.55
2022-10-17T13:03:48.194Z,18.45
2022-10-17T13:06:39.904Z,17.83
2022-10-17T13:09:32.751Z,20.45
2022-10-17T13:12:24.976Z,20.00
2022-10-17T13:15:17.901Z,22.10
2022-10-17T13:18:03.787Z,26.25
2022-10-17T13:20:59.524Z,23.40
2022-10-17T13:23:47.791Z,26.15
2022-10-17T13:26:33.574Z,21.52
2022-10-17T13:29:21.825Z,22.38
2022-10-17T13:32:11.512Z,24.52
2022-10-17T13:35:41.984Z,26.30
2022-10-17T13:38:34.186Z,22.80
2022-10-17T13:41:37.063Z,24.10
2022-10-17T13:44:34.097Z,25.80
2022-10-17T13:47:25.665Z,22.83
2022-10-17T13:50:43.581Z,23.67
2022-10-17T13:53:34.890Z,24.48
2022-10-17T13:56:28.960Z,24.17
2022-10-17T13:59:23.968Z,22.80
2022-10-17T14:02:20.544Z,24.45
2022-10-17T14:05:17.883Z,20.45
2022-10-17T14:08:11.895Z,21.83
2022-10-17T14:10:58.734Z,20.48
2022-10-17T14:13:50.063Z,21.48
2022-10-17T14:16:41.535Z,18.13
2022-10-17T14:19:33.411Z,19.80
2022-10-17T14:22:28.503Z,18.80
2022-10-17T14:25:38.611Z,20.38
2022-10-17T14:28:25.649Z,23.67
2022-10-17T14:31:14.130Z,19.65
2022-10-17T14:34:01.737Z,18.50
2022-10-17T14:36:50.866Z,17.50
2022-10-17T14:39:37.250Z,22.17
2022-10-17T14:42:23.897Z,21.85
2022-10-17T14:45:14.314Z,20.53
2022-10-17T14:48:23.758Z,25.30
2022-10-17T14:51:15.384Z,18.95
2022-10-17T14:54:05.480Z,19.48
2022-10-17T14:56:54.388Z,22.90
2022-10-17T14:59:53.832Z,20.67
2022-10-17T15:02:41.080Z,21.90
2022-10-17T15:05:27.152Z,22.08
2022-10-17T15:08:15.855Z,21.58
2022-10-17T15:11:01.737Z,23.48
2022-10-17T15:13:47.766Z,21.65
2022-10-17T15:16:35.460Z,21.70
2022-10-17T15:19:21.508Z,21.63
2022-10-17T15:22:07.909Z,23.88
2022-10-17T15:24:53.850Z,26.98
2022-10-17T15:27:39.970Z,21.97
2022-10-17T15:30:32.410Z,22.38
2022-10-17T15:33:19.106Z,22.75
2022-10-17T15:36:05.615Z,19.83
2022-10-17T15:38:53.742Z,20.85
2022-10-17T15:41:39.144Z,20.98
2022-10-17T15:44:24.755Z,19.98
2022-10-17T15:47:24.357Z,21.60
2022-10-17T15:50:17.434Z,20.88
2022-10-17T15:53:08.913Z,20.98
2022-10-17T15:55:55.581Z,20.67
2022-10-17T15:58:41.151Z,20.23
2022-10-17T16:01:29.973Z,22.08
2022-10-17T16:04:17.294Z,20.73
2022-10-17T16:07:03.470Z,25.05
2022-10-17T16:09:49.201Z,24.05
2022-10-17T16:12:41.280Z,22.98
2022-10-17T16:15:28.578Z,21.20
2022-10-17T16:18:15.123Z,20.33
2022-10-17T16:21:01.060Z,22.15
2022-10-17T16:23:46.824Z,22.20
2022-10-17T16:26:33.024Z,22.27
2022-10-17T16:29:19.426Z,19.17
2022-10-17T16:32:04.832Z,21.50
2022-10-17T16:34:50.799Z,21.17
2022-10-17T16:37:36.988Z,21.40
2022-10-17T16:40:23.302Z,22.05
2022-10-17T16:43:13.239Z,20.92
2022-10-17T16:45:59.159Z,21.98
2022-10-17T16:48:46.145Z,69.95
2022-10-17T16:51:35.780Z,23.58
2022-10-17T16:54:21.141Z,24.77
2022-10-17T16:57:06.697Z,21.55
2022-10-17T16:59:52.724Z,19.80
2022-10-17T17:02:38.953Z,26.60
2022-10-17T17:05:25.454Z,25.00
2022-10-17T17:08:12.733Z,24.70
2022-10-17T17:10:59.023Z,35.85
2022-10-17T17:13:45.259Z,22.63
2022-10-17T17:16:33.682Z,24.42
2022-10-17T17:19:20.383Z,25.13
2022-10-17T17:22:06.760Z,24.30
2022-10-17T17:24:52.654Z,21.65
2022-10-17T17:27:38.236Z,23.23
2022-10-17T17:30:24.194Z,21.60
2022-10-17T17:33:11.269Z,21.80
2022-10-17T17:36:00.136Z,25.05
2022-10-17T17:38:47.647Z,22.02
2022-10-17T17:41:34.612Z,21.63
2022-10-17T17:44:20.960Z,21.92
2022-10-17T17:47:08.444Z,21.90
2022-10-17T17:49:56.488Z,21.90
2022-10-17T17:52:45.641Z,22.50
2022-10-17T17:55:31.719Z,23.80
2022-10-17T17:58:17.624Z,22.23
2022-10-17T18:01:15.136Z,23.30
2022-10-17T18:04:01.077Z,22.45
2022-10-17T18:06:46.979Z,26.13
2022-10-17T18:09:33.368Z,25.73
2022-10-17T18:12:20.460Z,22.40
2022-10-17T18:15:06.941Z,22.47
2022-10-17T18:17:54.133Z,21.52
2022-10-17T18:20:42.549Z,23.73
2022-10-17T18:23:29.311Z,25.48
2022-10-17T18:26:16.151Z,27.35
2022-10-17T18:29:03.554Z,27.50
2022-10-17T18:31:49.562Z,26.08
2022-10-17T18:34:35.971Z,27.25
2022-10-17T18:37:22.062Z,22.30
2022-10-17T18:40:10.735Z,26.20
2022-10-17T18:42:56.665Z,22.77
2022-10-17T18:45:42.656Z,25.57
2022-10-17T18:48:28.662Z,26.65
2022-10-17T18:51:16.900Z,25.30
2022-10-17T18:54:03.712Z,28.00
2022-10-17T18:56:51.340Z,26.13
2022-10-17T18:59:39.141Z,24.10
2022-10-17T19:02:25.575Z,25.05
2022-10-17T19:05:11.470Z,27.95
2022-10-17T19:07:57.404Z,29.60
2022-10-17T19:10:44.105Z,45.08
2022-10-17T19:13:32.202Z,28.95
2022-10-17T19:16:21.166Z,26.27
2022-10-17T19:19:18.776Z,27.87
2022-10-17T19:22:05.581Z,24.67
2022-10-17T19:24:51.537Z,22.80
2022-10-17T19:27:38.029Z,27.65
2022-10-17T19:30:24.250Z,24.75
2022-10-17T19:33:10.678Z,25.40
2022-10-17T19:35:59.036Z,23.25
2022-10-17T19:38:45.680Z,23.90
2022-10-17T19:41:32.757Z,25.00
2022-10-17T19:44:18.944Z,27.02
2022-10-17T19:47:05.144Z,24.38
2022-10-17T19:49:51.342Z,25.77
2022-10-17T19:52:38.196Z,26.33
2022-10-17T19:55:24.392Z,26.65
2022-10-17T19:58:10.895Z,24.42
2022-10-17T20:01:01.342Z,27.30
2022-10-17T20:03:48.520Z,23.33
2022-10-17T20:06:35.507Z,26.67
2022-10-17T20:09:21.897Z,25.67
2022-10-17T20:12:07.747Z,26.20
2022-10-17T20:14:54.999Z,25.92
2022-10-17T20:17:41.069Z,28.13
2022-10-17T20:20:28.105Z,24.63
2022-10-17T20:23:14.374Z,26.30
2022-10-17T20:26:08.690Z,28.25
2022-10-17T20:29:08.937Z,31.83
2022-10-17T20:31:58.118Z,31.53
2022-10-17T20:34:44.730Z,29.25
2022-10-17T20:37:36.437Z,30.85
2022-10-17T20:40:36.175Z,31.45
2022-10-17T20:43:23.042Z,31.40
2022-10-17T20:46:23.557Z,31.00
2022-10-17T20:49:21.783Z,34.67
2022-10-17T20:52:07.622Z,35.47
2022-10-17T20:54:53.559Z,32.13
2022-10-17T20:57:39.375Z,31.05
2022-10-17T21:00:26.184Z,28.60
2022-10-17T21:03:12.437Z,30.70
2022-10-17T21:05:58.970Z,35.40
2022-10-17T21:08:46.588Z,29.37
2022-10-17T21:11:33.489Z,29.92
2022-10-17T21:14:23.374Z,29.25
2022-10-17T21:17:09.950Z,30.70
2022-10-17T21:19:56.050Z,31.13
2022-10-17T21:22:42.440Z,29.65
2022-10-17T21:25:29.087Z,31.90
2022-10-17T21:28:17.844Z,30.42
2022-10-17T21:31:18.131Z,33.40
2022-10-17T21:34:13.354Z,30.83
2022-10-17T21:37:00.446Z,29.75
2022-10-17T21:39:46.589Z,30.00
2022-10-17T21:42:33.283Z,30.98
2022-10-17T21:45:25.906Z,31.92
2022-10-17T21:48:13.287Z,29.85
2022-10-17T21:51:03.456Z,34.75
2022-10-17T21:53:51.145Z,28.30
2022-10-17T21:56:40.253Z,31.83
2022-10-17T21:59:26.446Z,29.05
2022-10-17T22:02:14.782Z,29.60
2022-10-17T22:05:01.554Z,33.13
2022-10-17T22:07:48.024Z,30.83
2022-10-17T22:10:37.555Z,27.67
2022-10-17T22:13:23.724Z,29.25
2022-10-17T22:16:12.120Z,33.00
2022-10-17T22:19:03.302Z,30.15
2022-10-17T22:21:53.300Z,31.08
2022-10-17T22:24:40.184Z,30.40
2022-10-17T22:27:26.580Z,30.85
2022-10-17T22:30:37.568Z,29.70
2022-10-17T22:33:23.858Z,32.50
2022-10-17T22:36:09.807Z,33.15
2022-10-17T22:38:55.644Z,29.75
2022-10-17T22:41:41.675Z,29.17
2022-10-17T22:44:27.463Z,31.77
2022-10-17T22:47:13.475Z,36.70
2022-10-17T22:49:59.813Z,36.40
2022-10-17T22:52:45.949Z,37.43
2022-10-17T22:55:33.345Z,37.13
2022-10-17T22:58:19.732Z,38.90
2022-10-17T23:01:07.645Z,35.22
2022-10-17T23:03:54.010Z,39.05
2022-10-17T23:06:40.918Z,35.03
2022-10-17T23:12:13.220Z,36.60
2022-10-17T23:14:59.294Z,37.20
2022-10-17T23:17:45.715Z,41.42
2022-10-17T23:20:32.730Z,40.70
2022-10-17T23:23:19.765Z,38.80
2022-10-17T23:26:11.601Z,39.08
2022-10-17T23:28:57.901Z,36.72
2022-10-17T23:31:43.885Z,36.67
2022-10-17T23:34:30.532Z,33.67
2022-10-17T23:37:16.079Z,34.10
2022-10-17T23:40:02.416Z,40.22
2022-10-17T23:42:48.524Z,40.38
2022-10-17T23:45:36.844Z,34.70
2022-10-17T23:48:23.213Z,36.33
2022-10-17T23:51:09.762Z,37.47
2022-10-17T23:53:55.550Z,35.30
2022-10-17T23:56:41.916Z,33.97
2022-10-17T23:59:28.307Z,33.72
